createdAt,value
2022-11-16T00:01:27.821Z,98.20
2022-11-16T00:03:58.332Z,98.20
2022-11-16T00:06:25.533Z,98.10
2022-11-16T00:09:14.281Z,98.30
2022-11-16T00:11:41.423Z,98.10
2022-11-16T00:14:08.307Z,98.00
2022-11-16T00:16:35.235Z,98.10
2022-11-16T00:19:04.374Z,97.90
2022-11-16T00:21:31.639Z,97.60
2022-11-16T00:23:58.789Z,97.70
2022-11-16T00:26:25.647Z,97.60
2022-11-16T00:28:53.851Z,97.70
2022-11-16T00:31:20.831Z,97.50
2022-11-16T00:33:48.480Z,97.40
2022-11-16T00:36:15.462Z,97.30
2022-11-16T00:38:43.010Z,97.40
2022-11-16T00:41:10.093Z,97.30
2022-11-16T00:43:37.289Z,97.50
2022-11-16T00:46:04.257Z,97.30
2022-11-16T00:48:31.553Z,97.40
2022-11-16T00:50:58.568Z,97.30
2022-11-16T00:53:25.158Z,97.40
2022-11-16T00:55:51.872Z,97.20
2022-11-16T00:58:18.512Z,97.30
2022-11-16T01:00:45.427Z,97.00
2022-11-16T01:03:12.428Z,97.00
2022-11-16T01:05:39.357Z,97.00
2022-11-16T01:08:06.467Z,97.20
2022-11-16T01:10:33.641Z,97.00
2022-11-16T01:13:00.272Z,97.10
2022-11-16T01:15:28.165Z,97.00
2022-11-16T01:17:55.959Z,97.00
2022-11-16T01:20:25.805Z,97.10
2022-11-16T01:22:52.886Z,97.00
2022-11-16T01:25:20.247Z,97.20
2022-11-16T01:27:47.460Z,97.00
2022-11-16T01:30:16.584Z,97.00
2022-11-16T01:32:43.535Z,96.80
2022-11-16T01:35:14.705Z,96.70
2022-11-16T01:37:41.391Z,96.90
2022-11-16T01:40:08.592Z,97.20
2022-11-16T01:42:35.233Z,96.60
2022-11-16T01:45:24.554Z,96.50
2022-11-16T01:47:52.925Z,97.10
2022-11-16T01:50:21.108Z,97.90
2022-11-16T01:52:58.302Z,97.90
2022-11-16T01:55:27.133Z,97.50
2022-11-16T01:57:54.762Z,97.00
2022-11-16T02:00:21.565Z,96.90
2022-11-16T02:02:48.329Z,96.60
2022-11-16T02:05:19.311Z,96.70
2022-11-16T02:08:24.559Z,96.60
2022-11-16T02:11:12.072Z,96.20
2022-11-16T02:13:41.606Z,96.10
2022-11-16T02:16:27.329Z,96.00
2022-11-16T02:19:19.439Z,96.00
2022-11-16T02:22:30.495Z,96.30
2022-11-16T02:25:07.006Z,96.70
2022-11-16T02:27:56.662Z,96.50
2022-11-16T02:30:23.945Z,96.40
2022-11-16T02:32:56.823Z,96.50
2022-11-16T02:35:33.950Z,96.40
2022-11-16T02:38:06.876Z,96.30
2022-11-16T02:40:36.048Z,96.20
2022-11-16T02:43:09.507Z,96.20
2022-11-16T02:45:58.613Z,96.60
2022-11-16T02:48:31.123Z,97.90
2022-11-16T02:50:58.094Z,98.30
2022-11-16T02:53:25.823Z,98.20
2022-11-16T02:55:52.610Z,98.20
2022-11-16T02:58:23.681Z,98.60
2022-11-16T03:00:57.483Z,98.80
2022-11-16T03:03:42.269Z,98.30
2022-11-16T03:06:36.154Z,98.30
2022-11-16T03:09:07.840Z,98.00
2022-11-16T03:11:58.288Z,98.10
2022-11-16T03:14:35.801Z,98.10
2022-11-16T03:17:06.778Z,98.00
2022-11-16T03:20:11.868Z,97.80
2022-11-16T03:22:40.031Z,97.90
2022-11-16T03:25:08.696Z,97.90
2022-11-16T03:28:01.369Z,97.80
2022-11-16T03:30:31.741Z,97.80
2022-11-16T03:33:08.920Z,97.60
2022-11-16T03:36:05.000Z,97.60
2022-11-16T03:38:34.838Z,97.50
2022-11-16T03:41:06.374Z,97.40
2022-11-16T03:43:34.443Z,97.30
2022-11-16T03:46:01.130Z,97.20
2022-11-16T03:48:39.497Z,97.20
2022-11-16T03:51:09.159Z,97.10
2022-11-16T03:53:36.201Z,97.20
2022-11-16T03:56:03.325Z,97.00
2022-11-16T03:58:30.325Z,97.00
2022-11-16T04:00:57.085Z,97.00
2022-11-16T04:03:23.781Z,97.00
2022-11-16T04:06:09.417Z,97.10
2022-11-16T04:08:54.927Z,97.20
2022-11-16T04:11:41.661Z,97.20
2022-11-16T04:14:39.454Z,97.20
2022-11-16T04:17:32.145Z,97.10
2022-11-16T04:20:17.756Z,97.10
2022-11-16T04:23:27.228Z,97.20
2022-11-16T04:25:55.401Z,97.20
2022-11-16T04:28:29.391Z,97.00
2022-11-16T04:31:18.430Z,96.90
2022-11-16T04:34:03.891Z,96.80
2022-11-16T04:36:49.093Z,96.70
2022-11-16T04:39:15.803Z,96.70
2022-11-16T04:42:01.531Z,96.70
2022-11-16T04:44:50.970Z,96.80
2022-11-16T04:47:17.651Z,96.70
2022-11-16T04:49:44.393Z,96.60
2022-11-16T04:52:11.393Z,96.50
2022-11-16T04:54:38.024Z,96.40
2022-11-16T04:57:04.714Z,96.40
2022-11-16T04:59:31.381Z,96.30
2022-11-16T05:02:10.255Z,96.30
2022-11-16T05:04:42.090Z,96.30
2022-11-16T05:07:11.854Z,96.40
2022-11-16T05:09:41.469Z,96.30
2022-11-16T05:12:09.074Z,96.30
2022-11-16T05:14:35.859Z,96.30
2022-11-16T05:17:02.602Z,96.40
2022-11-16T05:19:47.991Z,96.30
2022-11-16T05:22:14.640Z,96.40
2022-11-16T05:24:41.447Z,96.40
2022-11-16T05:27:10.958Z,96.20
2022-11-16T05:29:38.275Z,96.10
2022-11-16T05:32:06.236Z,96.10
2022-11-16T05:34:33.401Z,96.20
2022-11-16T05:37:00.177Z,96.20
2022-11-16T05:39:27.074Z,96.20
2022-11-16T05:41:54.496Z,96.30
2022-11-16T05:44:21.173Z,96.10
2022-11-16T05:46:48.285Z,96.30
2022-11-16T05:49:15.538Z,96.30
2022-11-16T05:51:44.746Z,96.30
2022-11-16T05:54:13.380Z,96.10
2022-11-16T05:56:40.390Z,96.20
2022-11-16T05:59:11.213Z,96.20
2022-11-16T06:01:42.702Z,96.10
2022-11-16T06:04:10.137Z,96.20
2022-11-16T06:06:37.033Z,96.40
2022-11-16T06:09:04.433Z,96.30
2022-11-16T06:11:35.499Z,96.30
2022-11-16T06:14:03.932Z,96.30
2022-11-16T06:16:30.844Z,96.30
2022-11-16T06:18:57.538Z,96.20
2022-11-16T06:21:24.193Z,96.20
2022-11-16T06:23:50.933Z,96.40
2022-11-16T06:26:17.809Z,96.40
2022-11-16T06:28:44.791Z,96.40
2022-11-16T06:31:11.504Z,96.40
2022-11-16T06:33:38.147Z,96.50
2022-11-16T06:36:05.082Z,96.60
2022-11-16T06:38:32.050Z,96.60
2022-11-16T06:40:59.316Z,96.70
2022-11-16T06:43:26.639Z,96.90
2022-11-16T06:45:57.662Z,96.60
2022-11-16T06:48:25.018Z,96.60
2022-11-16T06:50:52.503Z,96.60
2022-11-16T06:53:23.493Z,96.60
2022-11-16T06:55:52.697Z,96.60
2022-11-16T06:58:19.335Z,96.60
2022-11-16T07:00:45.972Z,96.60
2022-11-16T07:03:12.637Z,96.60
2022-11-16T07:05:41.509Z,96.50
2022-11-16T07:08:08.214Z,96.60
2022-11-16T07:10:34.876Z,96.40
2022-11-16T07:13:03.682Z,96.40
2022-11-16T07:15:30.821Z,96.40
2022-11-16T07:18:02.257Z,96.30
2022-11-16T07:20:28.919Z,96.10
2022-11-16T07:22:55.579Z,96.20
2022-11-16T07:25:22.230Z,96.10
2022-11-16T07:27:48.833Z,96.00
2022-11-16T07:30:15.715Z,96.00
2022-11-16T07:32:43.037Z,96.00
2022-11-16T07:35:09.682Z,96.00
2022-11-16T07:37:36.457Z,95.90
2022-11-16T07:40:03.880Z,96.10
2022-11-16T07:42:30.524Z,96.00
2022-11-16T07:44:57.171Z,96.10
2022-11-16T07:47:23.827Z,96.00
2022-11-16T07:49:50.499Z,96.00
2022-11-16T07:52:17.231Z,96.10
2022-11-16T07:54:43.887Z,96.20
2022-11-16T07:57:10.616Z,96.10
2022-11-16T07:59:37.333Z,96.00
2022-11-16T08:02:04.566Z,96.10
2022-11-16T08:04:31.261Z,96.10
2022-11-16T08:06:57.997Z,96.10
2022-11-16T08:09:24.668Z,96.20
2022-11-16T08:11:51.653Z,96.30
2022-11-16T08:14:19.168Z,96.00
2022-11-16T08:16:46.149Z,95.60
2022-11-16T08:19:12.811Z,95.40
2022-11-16T08:21:39.779Z,95.10
2022-11-16T08:24:06.642Z,95.10
2022-11-16T08:26:33.289Z,95.10
2022-11-16T08:28:59.963Z,95.00
2022-11-16T08:31:28.593Z,95.10
2022-11-16T08:33:56.467Z,95.00
2022-11-16T08:36:23.672Z,95.00
2022-11-16T08:38:51.367Z,95.00
2022-11-16T08:41:19.623Z,95.00
2022-11-16T08:43:50.670Z,95.00
2022-11-16T08:46:17.729Z,95.10
2022-11-16T08:48:44.733Z,95.00
2022-11-16T08:51:19.684Z,95.10
2022-11-16T08:53:48.395Z,95.20
2022-11-16T08:56:16.825Z,95.30
2022-11-16T08:58:44.270Z,95.00
2022-11-16T09:01:16.743Z,95.10
2022-11-16T09:03:43.647Z,95.00
2022-11-16T09:06:11.388Z,95.10
2022-11-16T09:08:39.882Z,95.10
2022-11-16T09:11:09.098Z,94.90
2022-11-16T09:13:36.007Z,95.10
2022-11-16T09:16:03.329Z,95.00
2022-11-16T09:18:30.752Z,95.00
2022-11-16T09:20:58.113Z,94.90
2022-11-16T09:23:25.932Z,95.00
2022-11-16T09:25:54.366Z,94.80
2022-11-16T09:28:22.025Z,95.00
2022-11-16T09:30:51.054Z,95.00
2022-11-16T09:33:18.130Z,95.00
2022-11-16T09:35:44.897Z,95.00
2022-11-16T09:38:16.034Z,95.00
2022-11-16T09:40:47.317Z,94.90
2022-11-16T09:43:41.067Z,95.10
2022-11-16T09:46:33.005Z,95.10
2022-11-16T09:49:03.544Z,94.90
2022-11-16T09:51:33.732Z,94.90
2022-11-16T09:54:06.267Z,94.80
2022-11-16T09:56:37.249Z,94.90
2022-11-16T09:59:15.110Z,95.00
2022-11-16T10:02:03.634Z,94.70
2022-11-16T10:04:50.546Z,95.00
2022-11-16T10:07:27.316Z,95.00
2022-11-16T10:09:56.311Z,94.80
2022-11-16T10:12:53.378Z,94.80
2022-11-16T10:16:15.193Z,94.90
2022-11-16T10:18:49.119Z,94.90
2022-11-16T10:21:42.065Z,94.80
2022-11-16T10:24:43.510Z,94.90
2022-11-16T10:27:33.042Z,94.90
2022-11-16T10:30:09.159Z,95.10
2022-11-16T10:33:02.152Z,94.80
2022-11-16T10:35:37.246Z,94.70
2022-11-16T10:38:12.828Z,94.80
2022-11-16T10:40:40.609Z,94.40
2022-11-16T10:43:17.734Z,94.30
2022-11-16T10:45:47.130Z,94.00
2022-11-16T10:48:37.346Z,93.70
2022-11-16T10:51:09.322Z,93.60
2022-11-16T10:53:41.528Z,93.40
2022-11-16T10:56:30.131Z,93.20
2022-11-16T10:59:02.322Z,93.00
2022-11-16T11:01:39.454Z,92.70
2022-11-16T11:04:14.541Z,92.70
2022-11-16T11:06:41.627Z,92.50
2022-11-16T11:09:27.926Z,92.50
2022-11-16T11:12:36.794Z,92.40
2022-11-16T11:15:27.059Z,92.30
2022-11-16T11:18:15.241Z,92.20
2022-11-16T11:20:45.410Z,92.80
2022-11-16T11:23:24.780Z,93.10
2022-11-16T11:26:00.240Z,92.90
2022-11-16T11:28:35.122Z,92.80
2022-11-16T11:31:26.050Z,92.90
2022-11-16T11:34:14.526Z,92.80
2022-11-16T11:36:48.392Z,92.70
2022-11-16T11:39:21.028Z,92.70
2022-11-16T11:42:19.680Z,92.80
2022-11-16T11:44:58.538Z,92.80
2022-11-16T11:48:00.375Z,92.80
2022-11-16T11:50:36.009Z,92.80
2022-11-16T11:53:06.178Z,92.80
2022-11-16T11:55:33.638Z,92.90
2022-11-16T11:58:04.347Z,92.90
2022-11-16T12:00:47.838Z,92.90
2022-11-16T12:03:33.280Z,93.00
2022-11-16T12:06:03.146Z,93.00
2022-11-16T12:08:47.740Z,93.10
2022-11-16T12:11:52.853Z,93.10
2022-11-16T12:14:22.245Z,93.10
2022-11-16T12:16:51.649Z,93.20
2022-11-16T12:19:36.446Z,93.20
2022-11-16T12:22:09.761Z,93.10
2022-11-16T12:24:54.367Z,93.10
2022-11-16T12:27:33.173Z,93.20
2022-11-16T12:30:10.856Z,93.30
2022-11-16T12:32:44.130Z,93.30
2022-11-16T12:35:16.329Z,93.40
2022-11-16T12:37:52.110Z,93.30
2022-11-16T12:40:58.025Z,93.30
2022-11-16T12:43:40.274Z,95.40
2022-11-16T12:46:10.431Z,96.00
2022-11-16T12:48:50.947Z,95.80
2022-11-16T12:51:50.500Z,95.20
2022-11-16T12:54:17.277Z,94.80
2022-11-16T12:56:54.241Z,94.60
2022-11-16T12:59:40.178Z,94.30
2022-11-16T13:02:30.344Z,94.10
2022-11-16T13:05:20.512Z,93.80
2022-11-16T13:08:10.903Z,93.80
2022-11-16T13:10:46.385Z,93.80
2022-11-16T13:13:40.111Z,93.80
2022-11-16T13:16:07.707Z,93.80
2022-11-16T13:18:38.515Z,93.70
2022-11-16T13:21:22.094Z,93.70
2022-11-16T13:23:59.395Z,93.70
2022-11-16T13:26:38.642Z,93.60
2022-11-16T13:29:36.050Z,93.60
2022-11-16T13:32:05.535Z,93.60
2022-11-16T13:34:37.281Z,93.60
2022-11-16T13:37:37.953Z,93.60
2022-11-16T13:40:04.789Z,93.50
2022-11-16T13:42:39.049Z,93.80
2022-11-16T13:45:20.796Z,93.50
2022-11-16T13:47:55.252Z,95.80
2022-11-16T13:50:38.039Z,96.20
2022-11-16T13:56:09.111Z,97.60
2022-11-16T13:58:37.675Z,97.90
2022-11-16T14:01:14.279Z,97.60
2022-11-16T14:03:51.323Z,97.20
2022-11-16T14:06:24.260Z,96.90
2022-11-16T14:08:57.971Z,96.80
2022-11-16T14:11:36.421Z,96.70
2022-11-16T14:14:05.754Z,96.60
2022-11-16T14:16:46.223Z,96.50
2022-11-16T14:19:51.863Z,97.00
2022-11-16T14:22:35.918Z,97.90
2022-11-16T14:25:25.885Z,98.00
2022-11-16T14:28:29.167Z,97.90
2022-11-16T14:31:20.792Z,97.90
2022-11-16T14:33:56.260Z,97.90
2022-11-16T14:36:37.584Z,98.00
2022-11-16T14:39:37.548Z,97.90
2022-11-16T14:42:27.122Z,97.90
2022-11-16T14:45:05.883Z,97.60
2022-11-16T14:47:36.475Z,97.90
2022-11-16T14:50:03.616Z,97.90
2022-11-16T14:52:40.150Z,97.80
2022-11-16T14:55:09.766Z,97.90
2022-11-16T14:57:36.543Z,98.00
2022-11-16T15:00:30.290Z,97.60
2022-11-16T15:03:02.392Z,97.40
2022-11-16T15:05:34.294Z,97.30
2022-11-16T15:08:03.810Z,97.30
2022-11-16T15:10:30.753Z,97.40
2022-11-16T15:12:58.142Z,97.50
2022-11-16T15:15:30.421Z,97.60
2022-11-16T15:18:00.690Z,97.30
2022-11-16T15:20:30.624Z,97.30
2022-11-16T15:22:59.924Z,97.30
2022-11-16T15:25:38.872Z,97.20
2022-11-16T15:28:27.307Z,97.30
2022-11-16T15:30:57.717Z,97.10
2022-11-16T15:33:28.585Z,97.00
2022-11-16T15:35:56.091Z,97.10
2022-11-16T15:38:23.559Z,97.00
2022-11-16T15:41:01.439Z,97.10
2022-11-16T15:43:45.035Z,96.90
2022-11-16T15:46:23.329Z,97.00
2022-11-16T15:48:50.472Z,97.00
2022-11-16T15:51:20.015Z,96.70
2022-11-16T15:53:48.639Z,96.80
2022-11-16T15:56:33.734Z,96.40
2022-11-16T15:59:29.135Z,96.30
2022-11-16T16:02:25.879Z,96.00
2022-11-16T16:05:23.919Z,95.50
2022-11-16T16:07:50.856Z,95.70
2022-11-16T16:10:20.580Z,95.80
2022-11-16T16:12:59.798Z,95.90
2022-11-16T16:15:36.761Z,95.50
2022-11-16T16:18:11.132Z,95.60
2022-11-16T16:20:37.860Z,95.40
2022-11-16T16:23:13.352Z,95.40
2022-11-16T16:25:40.048Z,95.40
2022-11-16T16:28:06.707Z,95.30
2022-11-16T16:30:34.640Z,95.40
2022-11-16T16:33:02.260Z,95.20
2022-11-16T16:35:29.185Z,95.40
2022-11-16T16:38:01.096Z,95.10
2022-11-16T16:40:28.790Z,95.30
2022-11-16T16:42:56.518Z,95.30
2022-11-16T16:45:33.709Z,95.70
2022-11-16T16:48:00.515Z,96.30
2022-11-16T16:50:27.148Z,96.40
2022-11-16T16:52:53.865Z,96.70
2022-11-16T16:55:20.628Z,96.60
2022-11-16T16:57:47.270Z,96.30
2022-11-16T17:00:14.386Z,96.40
2022-11-16T17:02:41.073Z,96.60
2022-11-16T17:05:08.081Z,96.60
2022-11-16T17:07:34.930Z,96.30
2022-11-16T17:10:01.612Z,96.40
2022-11-16T17:12:28.275Z,96.30
2022-11-16T17:14:54.921Z,95.80
2022-11-16T17:17:24.260Z,95.00
2022-11-16T17:19:51.460Z,94.70
2022-11-16T17:22:19.072Z,94.60
2022-11-16T17:24:46.053Z,94.40
2022-11-16T17:27:13.370Z,94.30
2022-11-16T17:29:40.013Z,94.30
2022-11-16T17:32:07.085Z,94.40
2022-11-16T17:34:33.790Z,94.30
2022-11-16T17:37:00.834Z,94.30
2022-11-16T17:39:27.713Z,94.30
2022-11-16T17:41:54.570Z,94.30
2022-11-16T17:44:22.096Z,94.30
2022-11-16T17:46:49.161Z,94.30
2022-11-16T17:49:15.834Z,94.20
2022-11-16T17:51:42.551Z,94.30
2022-11-16T17:54:09.294Z,94.30
2022-11-16T17:56:36.048Z,94.20
2022-11-16T17:59:02.689Z,94.10
2022-11-16T18:01:29.589Z,94.30
2022-11-16T18:03:56.369Z,95.10
2022-11-16T18:06:25.311Z,95.70
2022-11-16T18:08:53.529Z,95.80
2022-11-16T18:11:22.888Z,96.00
2022-11-16T18:13:58.106Z,96.10
2022-11-16T18:16:27.477Z,96.20
2022-11-16T18:19:00.016Z,96.10
2022-11-16T18:21:27.036Z,96.00
2022-11-16T18:23:53.817Z,96.10
2022-11-16T18:26:22.654Z,96.10
2022-11-16T18:28:50.960Z,95.80
2022-11-16T18:31:20.183Z,94.60
2022-11-16T18:33:49.039Z,94.00
2022-11-16T18:36:16.793Z,93.60
2022-11-16T18:38:43.503Z,93.90
2022-11-16T18:41:13.241Z,93.80
2022-11-16T18:43:48.505Z,94.00
2022-11-16T18:46:15.180Z,94.00
2022-11-16T18:48:42.812Z,94.20
2022-11-16T18:51:10.402Z,94.50
2022-11-16T18:53:37.396Z,94.20
2022-11-16T18:56:05.141Z,93.80
2022-11-16T19:01:20.884Z,93.50
2022-11-16T19:03:47.748Z,93.60
2022-11-16T19:06:17.880Z,94.10
2022-11-16T19:08:50.482Z,94.10
2022-11-16T19:11:20.817Z,94.00
2022-11-16T19:13:53.024Z,94.00
2022-11-16T19:16:19.707Z,93.90
2022-11-16T19:18:46.340Z,93.70
2022-11-16T19:21:15.334Z,93.50
2022-11-16T19:23:44.739Z,93.40
2022-11-16T19:26:15.934Z,93.40
2022-11-16T19:28:44.686Z,93.50
2022-11-16T19:31:15.552Z,93.80
2022-11-16T19:33:42.642Z,94.00
2022-11-16T19:36:12.002Z,93.60
2022-11-16T19:38:39.458Z,93.30
2022-11-16T19:41:07.531Z,93.30
2022-11-16T19:43:34.993Z,93.40
2022-11-16T19:46:10.502Z,93.40
2022-11-16T19:48:37.426Z,93.40
2022-11-16T19:51:05.866Z,93.20
2022-11-16T19:53:33.117Z,93.20
2022-11-16T19:56:00.250Z,93.20
2022-11-16T19:58:27.082Z,93.10
2022-11-16T20:01:00.856Z,93.10
2022-11-16T20:03:27.937Z,93.30
2022-11-16T20:06:07.195Z,93.10
2022-11-16T20:08:33.866Z,93.20
2022-11-16T20:11:00.608Z,93.20
2022-11-16T20:13:27.323Z,93.20
2022-11-16T20:15:53.961Z,93.30
2022-11-16T20:18:20.686Z,93.10
2022-11-16T20:20:47.331Z,93.10
2022-11-16T20:23:15.636Z,93.10
2022-11-16T20:25:42.329Z,93.10
2022-11-16T20:28:09.556Z,93.10
2022-11-16T20:30:36.255Z,93.10
2022-11-16T20:33:02.889Z,93.10
2022-11-16T20:35:29.625Z,93.10
2022-11-16T20:37:56.254Z,93.10
2022-11-16T20:40:22.914Z,93.20
2022-11-16T20:42:49.630Z,93.10
2022-11-16T20:45:16.377Z,93.20
2022-11-16T20:47:43.002Z,93.20
2022-11-16T20:50:09.823Z,93.20
2022-11-16T20:52:41.249Z,93.20
2022-11-16T20:55:10.044Z,93.90
2022-11-16T20:57:36.954Z,94.20
2022-11-16T21:00:05.060Z,94.10
2022-11-16T21:02:31.709Z,94.10
2022-11-16T21:05:00.366Z,94.30
2022-11-16T21:07:28.123Z,94.80
2022-11-16T21:10:13.655Z,94.30
2022-11-16T21:12:59.078Z,93.90
2022-11-16T21:15:25.846Z,93.80
2022-11-16T21:17:52.531Z,94.30
2022-11-16T21:20:28.209Z,94.10
2022-11-16T21:22:55.335Z,93.80
2022-11-16T21:25:22.022Z,93.60
2022-11-16T21:27:49.056Z,93.60
2022-11-16T21:30:16.122Z,93.80
2022-11-16T21:32:42.763Z,93.70
2022-11-16T21:35:09.497Z,93.60
2022-11-16T21:37:36.150Z,93.60
2022-11-16T21:40:03.228Z,93.60
2022-11-16T21:42:29.841Z,93.60
2022-11-16T21:44:56.509Z,93.50
2022-11-16T21:47:23.169Z,93.60
2022-11-16T21:50:16.947Z,93.80
2022-11-16T21:52:36.489Z,93.80
2022-11-16T21:55:03.270Z,93.80
2022-11-16T21:57:29.946Z,93.80
2022-11-16T21:59:56.650Z,93.70
2022-11-16T22:02:23.399Z,94.90
2022-11-16T22:05:08.574Z,96.10
2022-11-16T22:07:38.080Z,95.90
2022-11-16T22:10:10.148Z,95.40
2022-11-16T22:12:37.436Z,95.10
2022-11-16T22:15:06.848Z,95.10
2022-11-16T22:17:33.692Z,94.90
2022-11-16T22:20:00.371Z,95.00
2022-11-16T22:22:27.292Z,95.10
2022-11-16T22:24:54.333Z,95.60
2022-11-16T22:27:21.184Z,96.10
2022-11-16T22:29:47.819Z,96.20
2022-11-16T22:32:15.711Z,95.40
2022-11-16T22:34:42.417Z,94.70
2022-11-16T22:37:09.184Z,94.50
2022-11-16T22:39:36.660Z,94.30
2022-11-16T22:42:04.388Z,94.50
2022-11-16T22:44:31.091Z,94.20
2022-11-16T22:46:57.806Z,94.30
2022-11-16T22:49:25.026Z,94.20
2022-11-16T22:51:52.187Z,94.20
2022-11-16T22:54:18.939Z,94.20
2022-11-16T22:56:47.427Z,94.20
2022-11-16T22:59:14.450Z,94.20
2022-11-16T23:01:41.146Z,94.20
2022-11-16T23:04:07.793Z,94.20
2022-11-16T23:06:34.446Z,94.20
2022-11-16T23:09:01.530Z,94.20
2022-11-16T23:11:47.377Z,94.20
2022-11-16T23:14:34.934Z,94.10
2022-11-16T23:17:03.157Z,94.20
2022-11-16T23:19:48.830Z,94.50
2022-11-16T23:22:37.192Z,95.50
2022-11-16T23:25:23.962Z,96.40
2022-11-16T23:28:14.305Z,96.40
2022-11-16T23:30:41.151Z,96.40
2022-11-16T23:33:09.290Z,96.30
2022-11-16T23:35:36.057Z,96.30
2022-11-16T23:38:05.495Z,96.20
2022-11-16T23:40:35.198Z,96.20
2022-11-16T23:43:20.742Z,96.30
2022-11-16T23:45:48.031Z,96.30
2022-11-16T23:48:15.935Z,96.40
2022-11-16T23:50:44.014Z,96.20
2022-11-16T23:53:11.043Z,96.20
2022-11-16T23:55:38.805Z,97.00
2022-11-16T23:58:07.548Z,97.00
